sensor_id;sensor_type;location;lat;lon;timestamp;pressure;altitude;pressure_sealevel;temperature;humidity
58072;BME280;60383;46.626;18.866;2023-06-22T00:02:17;100608.59;;;24.55;84.30
58072;BME280;60383;46.626;18.866;2023-06-22T00:04:42;100604.34;;;24.53;85.92
58072;BME280;60383;46.626;18.866;2023-06-22T00:07:08;100593.69;;;24.26;86.59
58072;BME280;60383;46.626;18.866;2023-06-22T00:09:33;100587.56;;;24.41;85.49
58072;BME280;60383;46.626;18.866;2023-06-22T00:11:59;100585.28;;;24.38;84.94
58072;BME280;60383;46.626;18.866;2023-06-22T00:14:25;100580.31;;;24.28;84.33
58072;BME280;60383;46.626;18.866;2023-06-22T00:16:50;100580.31;;;24.16;84.92
58072;BME280;60383;46.626;18.866;2023-06-22T00:19:20;100575.56;;;24.17;84.48
58072;BME280;60383;46.626;18.866;2023-06-22T00:21:47;100574.00;;;24.21;83.64
58072;BME280;60383;46.626;18.866;2023-06-22T00:24:13;100583.47;;;24.08;84.42
58072;BME280;60383;46.626;18.866;2023-06-22T00:26:39;100587.50;;;24.12;83.88
58072;BME280;60383;46.626;18.866;2023-06-22T00:29:04;100594.78;;;24.13;82.95
58072;BME280;60383;46.626;18.866;2023-06-22T00:31:30;100591.13;;;24.01;83.57
58072;BME280;60383;46.626;18.866;2023-06-22T00:33:55;100594.78;;;24.13;83.61
58072;BME280;60383;46.626;18.866;2023-06-22T00:36:21;100589.78;;;24.03;83.42
58072;BME280;60383;46.626;18.866;2023-06-22T00:38:46;100581.31;;;24.10;82.79
58072;BME280;60383;46.626;18.866;2023-06-22T00:41:12;100594.56;;;24.15;82.88
58072;BME280;60383;46.626;18.866;2023-06-22T00:43:37;100597.09;;;24.04;82.92
58072;BME280;60383;46.626;18.866;2023-06-22T00:46:03;100600.78;;;24.05;82.32
58072;BME280;60383;46.626;18.866;2023-06-22T00:48:29;100601.72;;;24.11;81.71
58072;BME280;60383;46.626;18.866;2023-06-22T00:50:54;100602.59;;;24.11;81.03
58072;BME280;60383;46.626;18.866;2023-06-22T00:53:21;100613.66;;;24.06;81.05
58072;BME280;60383;46.626;18.866;2023-06-22T00:55:47;100618.88;;;24.02;81.22
58072;BME280;60383;46.626;18.866;2023-06-22T00:58:17;100605.28;;;24.06;80.49
58072;BME280;60383;46.626;18.866;2023-06-22T01:00:47;100606.72;;;23.97;80.81
58072;BME280;60383;46.626;18.866;2023-06-22T01:03:13;100609.25;;;23.98;81.77
58072;BME280;60383;46.626;18.866;2023-06-22T01:05:39;100602.69;;;23.92;82.12
58072;BME280;60383;46.626;18.866;2023-06-22T01:11:24;100615.94;;;23.85;81.56
58072;BME280;60383;46.626;18.866;2023-06-22T01:14:02;100619.47;;;23.92;80.13
58072;BME280;60383;46.626;18.866;2023-06-22T01:16:31;100621.53;;;23.85;79.60
58072;BME280;60383;46.626;18.866;2023-06-22T01:22:05;100609.84;;;23.88;81.19
58072;BME280;60383;46.626;18.866;2023-06-22T01:29:57;100601.19;;;23.90;83.10
58072;BME280;60383;46.626;18.866;2023-06-22T01:32:29;100595.22;;;23.86;82.78
58072;BME280;60383;46.626;18.866;2023-06-22T01:34:56;100593.53;;;23.73;82.60
58072;BME280;60383;46.626;18.866;2023-06-22T01:37:24;100598.38;;;23.66;83.34
58072;BME280;60383;46.626;18.866;2023-06-22T01:39:49;100586.97;;;23.68;82.55
58072;BME280;60383;46.626;18.866;2023-06-22T01:42:16;100581.88;;;23.65;82.71
58072;BME280;60383;46.626;18.866;2023-06-22T01:44:42;100574.06;;;23.67;82.62
58072;BME280;60383;46.626;18.866;2023-06-22T01:47:08;100582.44;;;23.67;82.44
58072;BME280;60383;46.626;18.866;2023-06-22T01:49:34;100581.97;;;23.70;81.46
58072;BME280;60383;46.626;18.866;2023-06-22T01:52:00;100578.69;;;23.73;82.86
58072;BME280;60383;46.626;18.866;2023-06-22T01:54:26;100591.81;;;23.60;83.29
58072;BME280;60383;46.626;18.866;2023-06-22T01:56:51;100596.91;;;23.52;84.59
58072;BME280;60383;46.626;18.866;2023-06-22T02:02:11;100585.94;;;23.08;87.86
58072;BME280;60383;46.626;18.866;2023-06-22T02:05:26;100581.56;;;23.12;88.10
58072;BME280;60383;46.626;18.866;2023-06-22T02:07:41;100581.09;;;23.15;88.69
58072;BME280;60383;46.626;18.866;2023-06-22T02:10:07;100588.38;;;23.16;88.23
58072;BME280;60383;46.626;18.866;2023-06-22T02:12:35;100584.72;;;23.16;86.43
58072;BME280;60383;46.626;18.866;2023-06-22T02:15:01;100587.09;;;23.19;87.35
58072;BME280;60383;46.626;18.866;2023-06-22T02:17:28;100591.00;;;22.99;89.98
58072;BME280;60383;46.626;18.866;2023-06-22T02:19:53;100583.31;;;22.94;90.85
58072;BME280;60383;46.626;18.866;2023-06-22T02:22:19;100589.25;;;23.17;91.02
58072;BME280;60383;46.626;18.866;2023-06-22T02:24:44;100582.44;;;23.12;91.71
58072;BME280;60383;46.626;18.866;2023-06-22T02:27:10;100587.31;;;23.17;90.75
58072;BME280;60383;46.626;18.866;2023-06-22T02:29:36;100596.22;;;23.07;91.71
58072;BME280;60383;46.626;18.866;2023-06-22T02:32:02;100599.78;;;23.14;91.31
58072;BME280;60383;46.626;18.866;2023-06-22T02:34:27;100611.81;;;23.15;91.27
58072;BME280;60383;46.626;18.866;2023-06-22T02:36:53;100609.66;;;23.17;90.79
58072;BME280;60383;46.626;18.866;2023-06-22T02:39:20;100615.03;;;23.19;90.46
58072;BME280;60383;46.626;18.866;2023-06-22T02:41:50;100615.44;;;23.16;88.96
58072;BME280;60383;46.626;18.866;2023-06-22T02:44:16;100617.72;;;23.25;88.98
58072;BME280;60383;46.626;18.866;2023-06-22T02:46:42;100627.56;;;23.28;89.42
58072;BME280;60383;46.626;18.866;2023-06-22T02:49:07;100630.75;;;23.13;90.16
58072;BME280;60383;46.626;18.866;2023-06-22T02:51:34;100628.19;;;23.11;89.03
58072;BME280;60383;46.626;18.866;2023-06-22T02:54:00;100625.28;;;23.06;88.14
58072;BME280;60383;46.626;18.866;2023-06-22T02:56:25;100624.78;;;23.09;86.32
58072;BME280;60383;46.626;18.866;2023-06-22T02:58:51;100630.75;;;23.13;85.01
58072;BME280;60383;46.626;18.866;2023-06-22T03:01:17;100622.53;;;23.18;86.03
58072;BME280;60383;46.626;18.866;2023-06-22T03:03:48;100628.03;;;23.25;86.53
58072;BME280;60383;46.626;18.866;2023-06-22T03:06:14;100630.59;;;23.26;86.31
58072;BME280;60383;46.626;18.866;2023-06-22T03:08:40;100636.66;;;23.23;86.41
58072;BME280;60383;46.626;18.866;2023-06-22T03:11:07;100643.34;;;23.22;86.22
58072;BME280;60383;46.626;18.866;2023-06-22T03:13:33;100641.00;;;23.19;86.26
58072;BME280;60383;46.626;18.866;2023-06-22T03:15:58;100639.13;;;23.13;86.76
58072;BME280;60383;46.626;18.866;2023-06-22T03:18:24;100641.25;;;23.18;85.89
58072;BME280;60383;46.626;18.866;2023-06-22T03:20:50;100640.06;;;23.07;86.32
58072;BME280;60383;46.626;18.866;2023-06-22T03:23:15;100653.19;;;23.06;86.39
58072;BME280;60383;46.626;18.866;2023-06-22T03:25:41;100650.53;;;23.11;86.20
58072;BME280;60383;46.626;18.866;2023-06-22T03:28:09;100649.47;;;23.12;85.77
58072;BME280;60383;46.626;18.866;2023-06-22T03:30:35;100651.13;;;23.13;85.97
58072;BME280;60383;46.626;18.866;2023-06-22T03:33:00;100653.25;;;23.18;84.62
58072;BME280;60383;46.626;18.866;2023-06-22T03:35:26;100657.31;;;23.22;83.99
58072;BME280;60383;46.626;18.866;2023-06-22T03:37:51;100659.41;;;23.27;85.08
58072;BME280;60383;46.626;18.866;2023-06-22T03:40:17;100661.25;;;23.33;86.81
58072;BME280;60383;46.626;18.866;2023-06-22T03:42:43;100653.44;;;23.35;88.71
58072;BME280;60383;46.626;18.866;2023-06-22T03:45:09;100647.88;;;23.35;88.44
58072;BME280;60383;46.626;18.866;2023-06-22T03:47:34;100644.47;;;23.33;88.39
58072;BME280;60383;46.626;18.866;2023-06-22T03:50:00;100642.53;;;23.34;88.67
58072;BME280;60383;46.626;18.866;2023-06-22T03:52:25;100640.31;;;23.24;88.04
58072;BME280;60383;46.626;18.866;2023-06-22T03:54:51;100654.03;;;23.25;87.49
58072;BME280;60383;46.626;18.866;2023-06-22T03:57:16;100651.38;;;23.12;87.08
58072;BME280;60383;46.626;18.866;2023-06-22T03:59:42;100654.19;;;23.12;87.42
58072;BME280;60383;46.626;18.866;2023-06-22T04:02:07;100650.31;;;23.13;86.86
58072;BME280;60383;46.626;18.866;2023-06-22T04:04:33;100659.84;;;23.24;85.20
58072;BME280;60383;46.626;18.866;2023-06-22T04:07:00;100655.91;;;23.43;84.61
58072;BME280;60383;46.626;18.866;2023-06-22T04:09:26;100662.72;;;23.36;85.26
58072;BME280;60383;46.626;18.866;2023-06-22T04:11:51;100647.41;;;23.38;83.29
58072;BME280;60383;46.626;18.866;2023-06-22T04:14:17;100650.19;;;23.38;83.36
58072;BME280;60383;46.626;18.866;2023-06-22T04:16:42;100649.94;;;23.40;82.99
58072;BME280;60383;46.626;18.866;2023-06-22T04:19:08;100650.66;;;23.35;83.41
58072;BME280;60383;46.626;18.866;2023-06-22T04:21:39;100651.66;;;23.41;83.56
58072;BME280;60383;46.626;18.866;2023-06-22T04:24:05;100659.34;;;23.45;83.29
58072;BME280;60383;46.626;18.866;2023-06-22T04:26:30;100659.47;;;23.51;82.69
58072;BME280;60383;46.626;18.866;2023-06-22T04:28:56;100662.50;;;23.49;82.76
58072;BME280;60383;46.626;18.866;2023-06-22T04:31:21;100665.19;;;23.56;82.61
58072;BME280;60383;46.626;18.866;2023-06-22T04:33:56;100660.34;;;23.63;82.59
58072;BME280;60383;46.626;18.866;2023-06-22T04:36:21;100655.72;;;23.57;82.17
58072;BME280;60383;46.626;18.866;2023-06-22T04:38:48;100653.63;;;23.52;83.17
58072;BME280;60383;46.626;18.866;2023-06-22T04:41:17;100646.59;;;23.50;82.24
58072;BME280;60383;46.626;18.866;2023-06-22T04:43:49;100654.47;;;23.41;82.82
58072;BME280;60383;46.626;18.866;2023-06-22T04:46:19;100653.75;;;23.45;82.14
58072;BME280;60383;46.626;18.866;2023-06-22T04:48:45;100652.16;;;23.50;82.34
58072;BME280;60383;46.626;18.866;2023-06-22T04:51:10;100652.88;;;23.45;82.81
58072;BME280;60383;46.626;18.866;2023-06-22T04:53:35;100655.25;;;23.60;82.40
58072;BME280;60383;46.626;18.866;2023-06-22T04:56:01;100659.88;;;23.66;81.99
58072;BME280;60383;46.626;18.866;2023-06-22T04:58:29;100654.16;;;23.73;81.67
58072;BME280;60383;46.626;18.866;2023-06-22T05:00:58;100657.34;;;23.76;80.49
58072;BME280;60383;46.626;18.866;2023-06-22T05:03:25;100659.06;;;23.77;80.15
58072;BME280;60383;46.626;18.866;2023-06-22T05:05:52;100663.81;;;23.77;80.12
58072;BME280;60383;46.626;18.866;2023-06-22T05:08:17;100660.13;;;23.76;79.88
58072;BME280;60383;46.626;18.866;2023-06-22T05:10:43;100653.13;;;23.86;80.18
58072;BME280;60383;46.626;18.866;2023-06-22T05:13:08;100663.34;;;23.92;78.59
58072;BME280;60383;46.626;18.866;2023-06-22T05:15:34;100662.03;;;23.95;78.60
58072;BME280;60383;46.626;18.866;2023-06-22T05:18:05;100662.28;;;23.93;79.94
58072;BME280;60383;46.626;18.866;2023-06-22T05:20:31;100661.22;;;24.06;78.32
58072;BME280;60383;46.626;18.866;2023-06-22T05:22:56;100655.00;;;24.16;78.62
58072;BME280;60383;46.626;18.866;2023-06-22T05:25:22;100651.00;;;24.35;77.39
58072;BME280;60383;46.626;18.866;2023-06-22T05:27:47;100661.06;;;24.48;75.42
58072;BME280;60383;46.626;18.866;2023-06-22T05:30:13;100652.94;;;24.35;76.46
58072;BME280;60383;46.626;18.866;2023-06-22T05:32:38;100665.47;;;24.56;75.98
58072;BME280;60383;46.626;18.866;2023-06-22T05:35:04;100660.00;;;24.26;78.65
58072;BME280;60383;46.626;18.866;2023-06-22T05:37:30;100662.78;;;24.37;79.39
58072;BME280;60383;46.626;18.866;2023-06-22T05:39:55;100667.91;;;24.52;78.62
58072;BME280;60383;46.626;18.866;2023-06-22T05:42:22;100671.78;;;24.75;77.67
58072;BME280;60383;46.626;18.866;2023-06-22T05:44:48;100671.38;;;24.95;76.55
58072;BME280;60383;46.626;18.866;2023-06-22T05:47:14;100675.31;;;24.59;76.53
58072;BME280;60383;46.626;18.866;2023-06-22T05:49:39;100670.56;;;24.83;75.17
58072;BME280;60383;46.626;18.866;2023-06-22T05:52:05;100673.13;;;24.72;76.36
58072;BME280;60383;46.626;18.866;2023-06-22T05:54:30;100674.81;;;24.62;76.32
58072;BME280;60383;46.626;18.866;2023-06-22T05:56:56;100678.59;;;24.79;76.37
58072;BME280;60383;46.626;18.866;2023-06-22T05:59:22;100682.91;;;25.11;74.83
58072;BME280;60383;46.626;18.866;2023-06-22T06:01:47;100671.34;;;25.07;74.24
58072;BME280;60383;46.626;18.866;2023-06-22T06:04:19;100684.94;;;24.86;73.56
58072;BME280;60383;46.626;18.866;2023-06-22T06:06:44;100676.59;;;25.03;74.62
58072;BME280;60383;46.626;18.866;2023-06-22T06:09:13;100679.56;;;25.26;73.73
58072;BME280;60383;46.626;18.866;2023-06-22T06:11:38;100685.69;;;25.23;71.97
58072;BME280;60383;46.626;18.866;2023-06-22T06:14:04;100679.34;;;24.75;73.24
58072;BME280;60383;46.626;18.866;2023-06-22T06:16:29;100682.41;;;24.73;73.60
58072;BME280;60383;46.626;18.866;2023-06-22T06:18:55;100688.22;;;24.60;73.63
58072;BME280;60383;46.626;18.866;2023-06-22T06:21:21;100680.78;;;24.65;74.26
58072;BME280;60383;46.626;18.866;2023-06-22T06:23:47;100679.81;;;24.83;72.91
58072;BME280;60383;46.626;18.866;2023-06-22T06:26:12;100675.44;;;24.87;72.64
58072;BME280;60383;46.626;18.866;2023-06-22T06:28:38;100683.94;;;24.81;73.92
58072;BME280;60383;46.626;18.866;2023-06-22T06:31:03;100668.81;;;25.06;73.42
58072;BME280;60383;46.626;18.866;2023-06-22T06:33:32;100675.19;;;24.77;74.78
58072;BME280;60383;46.626;18.866;2023-06-22T06:35:57;100668.09;;;24.98;73.09
58072;BME280;60383;46.626;18.866;2023-06-22T06:38:23;100671.19;;;25.14;72.40
58072;BME280;60383;46.626;18.866;2023-06-22T06:40:49;100668.56;;;25.36;71.80
58072;BME280;60383;46.626;18.866;2023-06-22T06:43:14;100668.22;;;25.78;72.33
58072;BME280;60383;46.626;18.866;2023-06-22T06:45:40;100660.69;;;25.79;71.70
58072;BME280;60383;46.626;18.866;2023-06-22T06:48:05;100664.44;;;25.39;73.10
58072;BME280;60383;46.626;18.866;2023-06-22T06:50:31;100664.31;;;25.04;73.63
58072;BME280;60383;46.626;18.866;2023-06-22T06:52:56;100656.78;;;25.63;72.82
58072;BME280;60383;46.626;18.866;2023-06-22T06:55:24;100664.94;;;24.95;74.70
58072;BME280;60383;46.626;18.866;2023-06-22T06:57:50;100660.50;;;25.68;70.71
58072;BME280;60383;46.626;18.866;2023-06-22T07:00:18;100660.84;;;25.89;69.74
58072;BME280;60383;46.626;18.866;2023-06-22T07:02:44;100660.94;;;25.60;70.12
58072;BME280;60383;46.626;18.866;2023-06-22T07:05:11;100660.50;;;25.86;70.63
58072;BME280;60383;46.626;18.866;2023-06-22T07:07:37;100657.47;;;26.04;70.35
58072;BME280;60383;46.626;18.866;2023-06-22T07:10:04;100656.16;;;26.07;67.69
58072;BME280;60383;46.626;18.866;2023-06-22T07:12:30;100658.34;;;25.30;69.12
58072;BME280;60383;46.626;18.866;2023-06-22T07:15:02;100658.19;;;25.48;68.45
58072;BME280;60383;46.626;18.866;2023-06-22T07:17:28;100658.50;;;25.98;67.25
58072;BME280;60383;46.626;18.866;2023-06-22T07:19:54;100661.88;;;25.83;67.30
58072;BME280;60383;46.626;18.866;2023-06-22T07:22:20;100662.16;;;26.15;67.82
58072;BME280;60383;46.626;18.866;2023-06-22T07:24:45;100663.47;;;26.08;68.88
58072;BME280;60383;46.626;18.866;2023-06-22T07:27:11;100661.22;;;26.27;67.72
58072;BME280;60383;46.626;18.866;2023-06-22T07:29:37;100663.91;;;26.56;68.37
58072;BME280;60383;46.626;18.866;2023-06-22T07:32:06;100655.28;;;26.80;69.40
58072;BME280;60383;46.626;18.866;2023-06-22T07:34:31;100665.59;;;26.57;69.65
58072;BME280;60383;46.626;18.866;2023-06-22T07:36:57;100659.31;;;26.89;67.97
58072;BME280;60383;46.626;18.866;2023-06-22T07:39:22;100656.28;;;27.18;68.57
58072;BME280;60383;46.626;18.866;2023-06-22T07:41:51;100650.22;;;27.26;68.57
58072;BME280;60383;46.626;18.866;2023-06-22T07:44:16;100656.59;;;27.44;65.94
58072;BME280;60383;46.626;18.866;2023-06-22T07:46:42;100661.59;;;27.64;66.66
58072;BME280;60383;46.626;18.866;2023-06-22T07:49:07;100659.38;;;27.16;65.28
58072;BME280;60383;46.626;18.866;2023-06-22T07:51:33;100661.50;;;27.53;63.89
58072;BME280;60383;46.626;18.866;2023-06-22T07:53:59;100660.84;;;27.73;64.10
58072;BME280;60383;46.626;18.866;2023-06-22T07:56:24;100665.66;;;28.05;64.04
58072;BME280;60383;46.626;18.866;2023-06-22T07:58:50;100654.59;;;27.66;63.29
58072;BME280;60383;46.626;18.866;2023-06-22T08:01:16;100661.94;;;28.00;62.57
58072;BME280;60383;46.626;18.866;2023-06-22T08:03:42;100653.94;;;27.86;62.36
58072;BME280;60383;46.626;18.866;2023-06-22T08:06:09;100655.59;;;28.15;63.59
58072;BME280;60383;46.626;18.866;2023-06-22T08:08:37;100664.34;;;28.18;64.27
58072;BME280;60383;46.626;18.866;2023-06-22T08:11:03;100661.91;;;28.32;61.63
58072;BME280;60383;46.626;18.866;2023-06-22T08:13:29;100659.38;;;28.31;62.52
58072;BME280;60383;46.626;18.866;2023-06-22T08:15:55;100659.56;;;28.19;61.83
58072;BME280;60383;46.626;18.866;2023-06-22T08:18:20;100652.66;;;28.04;63.95
58072;BME280;60383;46.626;18.866;2023-06-22T08:20:46;100649.69;;;28.59;63.08
58072;BME280;60383;46.626;18.866;2023-06-22T08:23:11;100654.31;;;28.76;62.27
58072;BME280;60383;46.626;18.866;2023-06-22T08:25:37;100667.75;;;28.63;61.18
58072;BME280;60383;46.626;18.866;2023-06-22T08:28:03;100668.88;;;29.15;59.27
58072;BME280;60383;46.626;18.866;2023-06-22T08:30:29;100664.38;;;29.25;58.40
58072;BME280;60383;46.626;18.866;2023-06-22T08:32:55;100654.63;;;29.48;57.16
58072;BME280;60383;46.626;18.866;2023-06-22T08:35:22;100659.31;;;29.22;60.49
58072;BME280;60383;46.626;18.866;2023-06-22T08:37:47;100662.22;;;29.37;57.94
58072;BME280;60383;46.626;18.866;2023-06-22T08:40:18;100658.84;;;29.61;57.97
58072;BME280;60383;46.626;18.866;2023-06-22T08:42:45;100661.25;;;29.16;58.78
58072;BME280;60383;46.626;18.866;2023-06-22T08:45:11;100656.19;;;29.23;60.15
58072;BME280;60383;46.626;18.866;2023-06-22T08:47:37;100654.66;;;29.69;57.36
58072;BME280;60383;46.626;18.866;2023-06-22T08:50:03;100648.72;;;29.75;58.35
58072;BME280;60383;46.626;18.866;2023-06-22T08:52:29;100643.69;;;30.14;56.78
58072;BME280;60383;46.626;18.866;2023-06-22T08:54:54;100644.47;;;30.35;56.37
58072;BME280;60383;46.626;18.866;2023-06-22T08:57:21;100647.59;;;29.82;57.11
58072;BME280;60383;46.626;18.866;2023-06-22T08:59:46;100636.28;;;29.82;56.53
58072;BME280;60383;46.626;18.866;2023-06-22T09:02:12;100635.78;;;30.05;55.65
58072;BME280;60383;46.626;18.866;2023-06-22T09:04:38;100635.47;;;30.22;56.72
58072;BME280;60383;46.626;18.866;2023-06-22T09:07:03;100633.50;;;29.97;56.41
58072;BME280;60383;46.626;18.866;2023-06-22T09:09:29;100630.69;;;30.13;55.55
58072;BME280;60383;46.626;18.866;2023-06-22T09:11:55;100615.66;;;30.38;56.61
58072;BME280;60383;46.626;18.866;2023-06-22T09:14:20;100615.03;;;30.67;55.33
58072;BME280;60383;46.626;18.866;2023-06-22T09:16:46;100614.81;;;30.53;55.03
58072;BME280;60383;46.626;18.866;2023-06-22T09:19:11;100607.41;;;30.67;55.87
58072;BME280;60383;46.626;18.866;2023-06-22T09:21:37;100606.50;;;30.82;55.11
58072;BME280;60383;46.626;18.866;2023-06-22T09:24:03;100609.28;;;30.93;56.25
58072;BME280;60383;46.626;18.866;2023-06-22T09:26:29;100608.13;;;30.94;52.85
58072;BME280;60383;46.626;18.866;2023-06-22T09:28:54;100605.44;;;30.68;54.74
58072;BME280;60383;46.626;18.866;2023-06-22T09:31:20;100609.28;;;30.93;53.25
58072;BME280;60383;46.626;18.866;2023-06-22T09:33:53;100599.25;;;31.21;52.87
58072;BME280;60383;46.626;18.866;2023-06-22T09:36:23;100601.69;;;31.38;52.28
58072;BME280;60383;46.626;18.866;2023-06-22T09:38:48;100604.81;;;31.36;53.04
58072;BME280;60383;46.626;18.866;2023-06-22T09:41:20;100601.50;;;31.64;50.63
58072;BME280;60383;46.626;18.866;2023-06-22T09:43:46;100596.56;;;31.45;50.67
58072;BME280;60383;46.626;18.866;2023-06-22T09:46:11;100597.31;;;30.30;53.46
58072;BME280;60383;46.626;18.866;2023-06-22T09:48:36;100594.50;;;31.11;52.49
58072;BME280;60383;46.626;18.866;2023-06-22T09:51:02;100592.06;;;30.84;53.74
58072;BME280;60383;46.626;18.866;2023-06-22T09:53:27;100594.91;;;31.39;53.34
58072;BME280;60383;46.626;18.866;2023-06-22T09:55:53;100589.03;;;31.25;51.99
58072;BME280;60383;46.626;18.866;2023-06-22T09:58:19;100584.13;;;31.81;50.01
58072;BME280;60383;46.626;18.866;2023-06-22T10:00:44;100586.88;;;31.51;50.71
58072;BME280;60383;46.626;18.866;2023-06-22T10:03:10;100588.25;;;31.94;52.43
58072;BME280;60383;46.626;18.866;2023-06-22T10:05:35;100583.63;;;32.03;50.99
58072;BME280;60383;46.626;18.866;2023-06-22T10:08:01;100579.84;;;31.83;52.63
58072;BME280;60383;46.626;18.866;2023-06-22T10:10:26;100578.41;;;32.15;53.13
58072;BME280;60383;46.626;18.866;2023-06-22T10:12:57;100572.19;;;32.43;50.14
58072;BME280;60383;46.626;18.866;2023-06-22T10:15:22;100576.09;;;32.17;51.57
58072;BME280;60383;46.626;18.866;2023-06-22T10:17:48;100573.72;;;31.71;52.08
58072;BME280;60383;46.626;18.866;2023-06-22T10:20:14;100572.84;;;32.05;50.63
58072;BME280;60383;46.626;18.866;2023-06-22T10:22:41;100575.38;;;31.77;51.64
58072;BME280;60383;46.626;18.866;2023-06-22T10:25:07;100575.56;;;32.21;49.56
58072;BME280;60383;46.626;18.866;2023-06-22T10:27:33;100568.03;;;31.36;50.43
58072;BME280;60383;46.626;18.866;2023-06-22T10:29:58;100571.31;;;32.18;50.97
58072;BME280;60383;46.626;18.866;2023-06-22T10:32:24;100569.91;;;32.45;50.92
58072;BME280;60383;46.626;18.866;2023-06-22T10:34:49;100572.75;;;31.86;49.76
58072;BME280;60383;46.626;18.866;2023-06-22T10:37:15;100572.00;;;32.34;49.55
58072;BME280;60383;46.626;18.866;2023-06-22T10:39:40;100573.72;;;32.54;49.96
58072;BME280;60383;46.626;18.866;2023-06-22T10:42:07;100575.56;;;32.45;48.93
58072;BME280;60383;46.626;18.866;2023-06-22T10:44:33;100575.06;;;32.38;49.79
58072;BME280;60383;46.626;18.866;2023-06-22T10:46:58;100568.25;;;32.63;47.94
58072;BME280;60383;46.626;18.866;2023-06-22T10:49:23;100578.31;;;32.99;47.02
58072;BME280;60383;46.626;18.866;2023-06-22T10:51:49;100573.34;;;33.28;45.53
58072;BME280;60383;46.626;18.866;2023-06-22T10:54:14;100574.31;;;33.00;46.03
58072;BME280;60383;46.626;18.866;2023-06-22T10:56:43;100568.53;;;32.61;47.78
58072;BME280;60383;46.626;18.866;2023-06-22T10:59:09;100568.13;;;31.95;48.96
58072;BME280;60383;46.626;18.866;2023-06-22T11:01:35;100574.44;;;32.46;48.22
58072;BME280;60383;46.626;18.866;2023-06-22T11:04:00;100579.16;;;31.97;48.25
58072;BME280;60383;46.626;18.866;2023-06-22T11:06:26;100572.78;;;32.64;48.53
58072;BME280;60383;46.626;18.866;2023-06-22T11:08:51;100573.47;;;32.80;48.61
58072;BME280;60383;46.626;18.866;2023-06-22T11:11:17;100570.50;;;33.09;46.97
58072;BME280;60383;46.626;18.866;2023-06-22T11:13:43;100574.34;;;32.51;47.82
58072;BME280;60383;46.626;18.866;2023-06-22T11:16:10;100568.94;;;32.79;48.47
58072;BME280;60383;46.626;18.866;2023-06-22T11:18:35;100568.25;;;32.63;44.21
58072;BME280;60383;46.626;18.866;2023-06-22T11:21:01;100562.75;;;33.34;43.06
58072;BME280;60383;46.626;18.866;2023-06-22T11:23:26;100556.22;;;32.76;43.80
58072;BME280;60383;46.626;18.866;2023-06-22T11:25:54;100555.03;;;33.40;44.96
58072;BME280;60383;46.626;18.866;2023-06-22T11:28:19;100551.00;;;33.60;42.82
58072;BME280;60383;46.626;18.866;2023-06-22T11:30:45;100547.31;;;33.59;45.17
58072;BME280;60383;46.626;18.866;2023-06-22T11:33:11;100552.41;;;33.43;43.99
58072;BME280;60383;46.626;18.866;2023-06-22T11:35:37;100549.44;;;33.87;42.11
58072;BME280;60383;46.626;18.866;2023-06-22T11:38:02;100546.72;;;34.10;42.28
58072;BME280;60383;46.626;18.866;2023-06-22T11:40:29;100553.16;;;34.29;42.42
58072;BME280;60383;46.626;18.866;2023-06-22T11:42:55;100550.19;;;34.20;42.65
58072;BME280;60383;46.626;18.866;2023-06-22T11:45:20;100542.19;;;33.75;45.46
58072;BME280;60383;46.626;18.866;2023-06-22T11:47:46;100546.59;;;34.01;43.11
58072;BME280;60383;46.626;18.866;2023-06-22T11:50:12;100545.88;;;34.09;43.66
58072;BME280;60383;46.626;18.866;2023-06-22T11:52:37;100540.34;;;33.52;44.31
58072;BME280;60383;46.626;18.866;2023-06-22T11:55:03;100540.28;;;33.71;42.88
58072;BME280;60383;46.626;18.866;2023-06-22T11:57:33;100537.97;;;34.06;42.77
58072;BME280;60383;46.626;18.866;2023-06-22T11:59:59;100540.69;;;33.83;42.95
58072;BME280;60383;46.626;18.866;2023-06-22T12:02:24;100532.44;;;33.82;43.87
58072;BME280;60383;46.626;18.866;2023-06-22T12:04:50;100534.19;;;34.11;41.54
58072;BME280;60383;46.626;18.866;2023-06-22T12:07:18;100534.19;;;34.11;41.09
58072;BME280;60383;46.626;18.866;2023-06-22T12:09:43;100526.56;;;34.39;41.03
58072;BME280;60383;46.626;18.866;2023-06-22T12:12:09;100527.28;;;34.59;40.30
58072;BME280;60383;46.626;18.866;2023-06-22T12:14:35;100525.13;;;33.95;40.89
58072;BME280;60383;46.626;18.866;2023-06-22T12:17:00;100530.53;;;34.24;42.89
58072;BME280;60383;46.626;18.866;2023-06-22T12:19:26;100518.50;;;34.13;41.87
58072;BME280;60383;46.626;18.866;2023-06-22T12:21:51;100520.97;;;34.20;42.99
58072;BME280;60383;46.626;18.866;2023-06-22T12:24:17;100512.75;;;34.32;41.53
58072;BME280;60383;46.626;18.866;2023-06-22T12:26:42;100501.59;;;34.22;40.16
58072;BME280;60383;46.626;18.866;2023-06-22T12:29:08;100506.03;;;34.42;40.09
58072;BME280;60383;46.626;18.866;2023-06-22T12:31:35;100507.47;;;34.12;40.42
58072;BME280;60383;46.626;18.866;2023-06-22T12:34:02;100511.69;;;34.00;40.28
58072;BME280;60383;46.626;18.866;2023-06-22T12:36:27;100497.16;;;34.30;39.69
58072;BME280;60383;46.626;18.866;2023-06-22T12:38:53;100502.31;;;34.00;41.56
58072;BME280;60383;46.626;18.866;2023-06-22T12:41:19;100496.53;;;34.05;40.45
58072;BME280;60383;46.626;18.866;2023-06-22T12:43:46;100493.59;;;34.10;41.09
58072;BME280;60383;46.626;18.866;2023-06-22T12:46:11;100494.53;;;34.19;41.84
58072;BME280;60383;46.626;18.866;2023-06-22T12:48:37;100500.97;;;34.11;41.17
58072;BME280;60383;46.626;18.866;2023-06-22T12:51:07;100490.56;;;32.88;40.69